Newburyport, Massachusetts
Current Conditions -  °F | °C
As of 12:54 AM on Thursday 23 Oct 2014 (Local Time) from KLWM Reporting Station
Light Rain Light Rain  
Wind Chill: 41°   Ceiling: 1000
Heat Index: 49°   Visibility: 6mi
Dew Point: 46°   Wind: 24mph
Humidity: 90%   Direction: 30°NNE
Pressure: 29.84"   Gusts: 43mph
Location:  42.81°N, 70.87°W
Report Text: KLWM 230454Z AUTO 03021G37KT 6SM -RA BR OVC010 09/08 A2984 RMK AO2 PK WND 03037/0449 LTG DSNT S CIG 009V014 SLP106 P0004 T00940078 401170089
Loading
Personal Weather Stations






























Interactive Weather Map
Tropical Storm Tracking
New forecast layout! Learn more

10-Day Weather Forecast

Advertisements
Track Severe Weather on mobile